sensor_id;sensor_type;location;lat;lon;timestamp;pressure;altitude;pressure_sealevel;temperature
65569;BMP180;52211;50.154;8.682;2023-05-07T00:02:03;100062.00;;;22.30
65569;BMP180;52211;50.154;8.682;2023-05-07T00:04:30;100056.00;;;22.30
65569;BMP180;52211;50.154;8.682;2023-05-07T00:07:04;100057.00;;;22.30
65569;BMP180;52211;50.154;8.682;2023-05-07T00:09:33;100063.00;;;22.30
65569;BMP180;52211;50.154;8.682;2023-05-07T00:12:00;100060.00;;;22.20
65569;BMP180;52211;50.154;8.682;2023-05-07T00:14:30;100064.00;;;22.20
65569;BMP180;52211;50.154;8.682;2023-05-07T00:17:00;100068.00;;;22.20
65569;BMP180;52211;50.154;8.682;2023-05-07T00:19:27;100054.00;;;22.20
65569;BMP180;52211;50.154;8.682;2023-05-07T00:21:53;100055.00;;;22.20
65569;BMP180;52211;50.154;8.682;2023-05-07T00:24:23;100060.00;;;22.20
65569;BMP180;52211;50.154;8.682;2023-05-07T00:26:52;100057.00;;;22.20
65569;BMP180;52211;50.154;8.682;2023-05-07T00:29:22;100062.00;;;22.20
65569;BMP180;52211;50.154;8.682;2023-05-07T00:31:51;100058.00;;;22.20
65569;BMP180;52211;50.154;8.682;2023-05-07T00:34:22;100049.00;;;22.20
65569;BMP180;52211;50.154;8.682;2023-05-07T00:36:49;100052.00;;;22.20
65569;BMP180;52211;50.154;8.682;2023-05-07T00:39:20;100048.00;;;22.20
65569;BMP180;52211;50.154;8.682;2023-05-07T00:41:49;100059.00;;;22.20
65569;BMP180;52211;50.154;8.682;2023-05-07T00:44:18;100057.00;;;22.20
65569;BMP180;52211;50.154;8.682;2023-05-07T00:46:47;100058.00;;;22.20
65569;BMP180;52211;50.154;8.682;2023-05-07T00:49:20;100055.00;;;22.20
65569;BMP180;52211;50.154;8.682;2023-05-07T00:51:47;100046.00;;;22.20
65569;BMP180;52211;50.154;8.682;2023-05-07T00:54:19;100045.00;;;22.20
65569;BMP180;52211;50.154;8.682;2023-05-07T00:56:49;100041.00;;;22.20
65569;BMP180;52211;50.154;8.682;2023-05-07T00:59:21;100040.00;;;22.20
65569;BMP180;52211;50.154;8.682;2023-05-07T01:01:51;100031.00;;;22.20
65569;BMP180;52211;50.154;8.682;2023-05-07T01:04:21;100040.00;;;22.20
65569;BMP180;52211;50.154;8.682;2023-05-07T01:06:52;100037.00;;;22.20
65569;BMP180;52211;50.154;8.682;2023-05-07T01:09:24;100040.00;;;22.10
65569;BMP180;52211;50.154;8.682;2023-05-07T01:11:59;100045.00;;;22.10
65569;BMP180;52211;50.154;8.682;2023-05-07T01:14:28;100046.00;;;22.10
65569;BMP180;52211;50.154;8.682;2023-05-07T01:16:58;100048.00;;;22.10
65569;BMP180;52211;50.154;8.682;2023-05-07T01:19:28;100039.00;;;22.10
65569;BMP180;52211;50.154;8.682;2023-05-07T01:22:07;100035.00;;;22.10
65569;BMP180;52211;50.154;8.682;2023-05-07T01:24:47;100033.00;;;22.10
65569;BMP180;52211;50.154;8.682;2023-05-07T01:27:17;100038.00;;;22.10
65569;BMP180;52211;50.154;8.682;2023-05-07T01:29:46;100037.00;;;22.00
65569;BMP180;52211;50.154;8.682;2023-05-07T01:32:18;100034.00;;;22.00
65569;BMP180;52211;50.154;8.682;2023-05-07T01:34:52;100033.00;;;22.00
65569;BMP180;52211;50.154;8.682;2023-05-07T01:37:25;100037.00;;;22.00
65569;BMP180;52211;50.154;8.682;2023-05-07T01:39:57;100038.00;;;22.00
65569;BMP180;52211;50.154;8.682;2023-05-07T01:42:29;100037.00;;;22.00
65569;BMP180;52211;50.154;8.682;2023-05-07T01:45:02;100040.00;;;22.00
65569;BMP180;52211;50.154;8.682;2023-05-07T01:47:30;100042.00;;;22.00
65569;BMP180;52211;50.154;8.682;2023-05-07T01:49:58;100031.00;;;22.00
65569;BMP180;52211;50.154;8.682;2023-05-07T01:52:31;100028.00;;;22.00
65569;BMP180;52211;50.154;8.682;2023-05-07T01:54:58;100028.00;;;22.00
65569;BMP180;52211;50.154;8.682;2023-05-07T01:57:28;100021.00;;;21.90
65569;BMP180;52211;50.154;8.682;2023-05-07T01:59:55;100025.00;;;21.90
65569;BMP180;52211;50.154;8.682;2023-05-07T02:02:22;100025.00;;;21.90
65569;BMP180;52211;50.154;8.682;2023-05-07T02:04:54;100025.00;;;21.90
65569;BMP180;52211;50.154;8.682;2023-05-07T02:07:22;100023.00;;;21.90
65569;BMP180;52211;50.154;8.682;2023-05-07T02:09:49;100037.00;;;21.90
65569;BMP180;52211;50.154;8.682;2023-05-07T02:12:18;100030.00;;;21.80
65569;BMP180;52211;50.154;8.682;2023-05-07T02:14:46;100035.00;;;21.80
65569;BMP180;52211;50.154;8.682;2023-05-07T02:17:13;100041.00;;;21.80
65569;BMP180;52211;50.154;8.682;2023-05-07T02:19:45;100045.00;;;21.80
65569;BMP180;52211;50.154;8.682;2023-05-07T02:22:16;100039.00;;;21.80
65569;BMP180;52211;50.154;8.682;2023-05-07T02:24:48;100042.00;;;21.80
65569;BMP180;52211;50.154;8.682;2023-05-07T02:27:20;100034.00;;;21.80
65569;BMP180;52211;50.154;8.682;2023-05-07T02:29:49;100035.00;;;21.80
65569;BMP180;52211;50.154;8.682;2023-05-07T02:32:16;100040.00;;;21.80
65569;BMP180;52211;50.154;8.682;2023-05-07T02:34:45;100043.00;;;21.70
65569;BMP180;52211;50.154;8.682;2023-05-07T02:37:12;100045.00;;;21.70
65569;BMP180;52211;50.154;8.682;2023-05-07T02:39:41;100041.00;;;21.70
65569;BMP180;52211;50.154;8.682;2023-05-07T02:42:08;100039.00;;;21.70
65569;BMP180;52211;50.154;8.682;2023-05-07T02:44:38;100041.00;;;21.70
65569;BMP180;52211;50.154;8.682;2023-05-07T02:47:07;100040.00;;;21.70
65569;BMP180;52211;50.154;8.682;2023-05-07T02:49:38;100037.00;;;21.70
65569;BMP180;52211;50.154;8.682;2023-05-07T02:52:10;100040.00;;;21.70
65569;BMP180;52211;50.154;8.682;2023-05-07T02:54:37;100039.00;;;21.70
65569;BMP180;52211;50.154;8.682;2023-05-07T02:57:04;100043.00;;;21.70
65569;BMP180;52211;50.154;8.682;2023-05-07T02:59:34;100039.00;;;21.70
65569;BMP180;52211;50.154;8.682;2023-05-07T03:02:05;100034.00;;;21.60
65569;BMP180;52211;50.154;8.682;2023-05-07T03:04:32;100043.00;;;21.60
65569;BMP180;52211;50.154;8.682;2023-05-07T03:06:59;100040.00;;;21.60
65569;BMP180;52211;50.154;8.682;2023-05-07T03:09:29;100035.00;;;21.60
65569;BMP180;52211;50.154;8.682;2023-05-07T03:11:58;100028.00;;;21.60
65569;BMP180;52211;50.154;8.682;2023-05-07T03:14:30;100038.00;;;21.50
65569;BMP180;52211;50.154;8.682;2023-05-07T03:16:59;100030.00;;;21.50
65569;BMP180;52211;50.154;8.682;2023-05-07T03:19:28;100037.00;;;21.50
65569;BMP180;52211;50.154;8.682;2023-05-07T03:21:59;100030.00;;;21.50
65569;BMP180;52211;50.154;8.682;2023-05-07T03:24:26;100028.00;;;21.50
65569;BMP180;52211;50.154;8.682;2023-05-07T03:26:53;100025.00;;;21.50
65569;BMP180;52211;50.154;8.682;2023-05-07T03:29:23;100035.00;;;21.50
65569;BMP180;52211;50.154;8.682;2023-05-07T03:31:52;100032.00;;;21.50
65569;BMP180;52211;50.154;8.682;2023-05-07T03:34:20;100034.00;;;21.50
65569;BMP180;52211;50.154;8.682;2023-05-07T03:36:49;100029.00;;;21.50
65569;BMP180;52211;50.154;8.682;2023-05-07T03:39:17;100030.00;;;21.50
65569;BMP180;52211;50.154;8.682;2023-05-07T03:41:44;100032.00;;;21.50
65569;BMP180;52211;50.154;8.682;2023-05-07T03:44:13;100016.00;;;21.50
65569;BMP180;52211;50.154;8.682;2023-05-07T03:46:40;100024.00;;;21.50
65569;BMP180;52211;50.154;8.682;2023-05-07T03:49:09;100016.00;;;21.40
65569;BMP180;52211;50.154;8.682;2023-05-07T03:51:36;100016.00;;;21.40
65569;BMP180;52211;50.154;8.682;2023-05-07T03:54:07;100012.00;;;21.40
65569;BMP180;52211;50.154;8.682;2023-05-07T03:56:36;100016.00;;;21.40
65569;BMP180;52211;50.154;8.682;2023-05-07T03:59:07;100023.00;;;21.40
65569;BMP180;52211;50.154;8.682;2023-05-07T04:01:36;100019.00;;;21.30
65569;BMP180;52211;50.154;8.682;2023-05-07T04:04:09;100017.00;;;21.30
65569;BMP180;52211;50.154;8.682;2023-05-07T04:06:37;100021.00;;;21.30
65569;BMP180;52211;50.154;8.682;2023-05-07T04:09:04;100026.00;;;21.30
65569;BMP180;52211;50.154;8.682;2023-05-07T04:11:30;100029.00;;;21.30
65569;BMP180;52211;50.154;8.682;2023-05-07T04:13:58;100026.00;;;21.30
65569;BMP180;52211;50.154;8.682;2023-05-07T04:16:27;100030.00;;;21.30
65569;BMP180;52211;50.154;8.682;2023-05-07T04:18:54;100029.00;;;21.20
65569;BMP180;52211;50.154;8.682;2023-05-07T04:21:23;100034.00;;;21.20
65569;BMP180;52211;50.154;8.682;2023-05-07T04:23:53;100040.00;;;21.20
65569;BMP180;52211;50.154;8.682;2023-05-07T04:26:20;100036.00;;;21.20
65569;BMP180;52211;50.154;8.682;2023-05-07T04:28:50;100037.00;;;21.10
65569;BMP180;52211;50.154;8.682;2023-05-07T04:31:17;100046.00;;;21.10
65569;BMP180;52211;50.154;8.682;2023-05-07T04:33:50;100053.00;;;21.10
65569;BMP180;52211;50.154;8.682;2023-05-07T04:36:18;100058.00;;;21.10
65569;BMP180;52211;50.154;8.682;2023-05-07T04:38:57;100070.00;;;21.10
65569;BMP180;52211;50.154;8.682;2023-05-07T04:41:30;100069.00;;;21.20
65569;BMP180;52211;50.154;8.682;2023-05-07T04:44:00;100075.00;;;21.20
65569;BMP180;52211;50.154;8.682;2023-05-07T04:46:32;100073.00;;;21.20
65569;BMP180;52211;50.154;8.682;2023-05-07T04:49:02;100083.00;;;21.20
65569;BMP180;52211;50.154;8.682;2023-05-07T04:51:32;100080.00;;;21.20
65569;BMP180;52211;50.154;8.682;2023-05-07T04:53:59;100078.00;;;21.20
65569;BMP180;52211;50.154;8.682;2023-05-07T04:56:29;100079.00;;;21.20
65569;BMP180;52211;50.154;8.682;2023-05-07T04:58:58;100081.00;;;21.20
65569;BMP180;52211;50.154;8.682;2023-05-07T05:01:28;100074.00;;;21.20
65569;BMP180;52211;50.154;8.682;2023-05-07T05:04:00;100068.00;;;21.20
65569;BMP180;52211;50.154;8.682;2023-05-07T05:06:29;100064.00;;;21.20
65569;BMP180;52211;50.154;8.682;2023-05-07T05:09:02;100075.00;;;21.20
65569;BMP180;52211;50.154;8.682;2023-05-07T05:11:34;100078.00;;;21.20
65569;BMP180;52211;50.154;8.682;2023-05-07T05:14:04;100092.00;;;21.30
65569;BMP180;52211;50.154;8.682;2023-05-07T05:16:33;100096.00;;;21.30
65569;BMP180;52211;50.154;8.682;2023-05-07T05:19:08;100094.00;;;21.30
65569;BMP180;52211;50.154;8.682;2023-05-07T05:21:42;100087.00;;;21.30
65569;BMP180;52211;50.154;8.682;2023-05-07T05:24:12;100098.00;;;21.40
65569;BMP180;52211;50.154;8.682;2023-05-07T05:26:46;100112.00;;;21.40
65569;BMP180;52211;50.154;8.682;2023-05-07T05:29:13;100105.00;;;21.40
65569;BMP180;52211;50.154;8.682;2023-05-07T05:31:46;100104.00;;;21.40
65569;BMP180;52211;50.154;8.682;2023-05-07T05:34:13;100103.00;;;21.50
65569;BMP180;52211;50.154;8.682;2023-05-07T05:36:46;100104.00;;;21.50
65569;BMP180;52211;50.154;8.682;2023-05-07T05:39:18;100103.00;;;21.50
65569;BMP180;52211;50.154;8.682;2023-05-07T05:41:45;100104.00;;;21.50
65569;BMP180;52211;50.154;8.682;2023-05-07T05:44:17;100111.00;;;21.50
65569;BMP180;52211;50.154;8.682;2023-05-07T05:46:44;100104.00;;;21.50
65569;BMP180;52211;50.154;8.682;2023-05-07T05:49:13;100103.00;;;21.60
65569;BMP180;52211;50.154;8.682;2023-05-07T05:51:41;100109.00;;;21.60
65569;BMP180;52211;50.154;8.682;2023-05-07T05:54:14;100104.00;;;21.60
65569;BMP180;52211;50.154;8.682;2023-05-07T05:56:47;100108.00;;;21.70
65569;BMP180;52211;50.154;8.682;2023-05-07T05:59:19;100105.00;;;21.70
65569;BMP180;52211;50.154;8.682;2023-05-07T06:01:49;100109.00;;;21.70
65569;BMP180;52211;50.154;8.682;2023-05-07T06:04:18;100106.00;;;21.80
65569;BMP180;52211;50.154;8.682;2023-05-07T06:06:53;100109.00;;;21.80
65569;BMP180;52211;50.154;8.682;2023-05-07T06:09:24;100108.00;;;21.90
65569;BMP180;52211;50.154;8.682;2023-05-07T06:11:51;100105.00;;;21.90
65569;BMP180;52211;50.154;8.682;2023-05-07T06:14:18;100110.00;;;22.00
65569;BMP180;52211;50.154;8.682;2023-05-07T06:16:50;100110.00;;;22.00
65569;BMP180;52211;50.154;8.682;2023-05-07T06:19:19;100106.00;;;22.10
65569;BMP180;52211;50.154;8.682;2023-05-07T06:21:56;100116.00;;;22.10
65569;BMP180;52211;50.154;8.682;2023-05-07T06:24:30;100117.00;;;22.20
65569;BMP180;52211;50.154;8.682;2023-05-07T06:27:00;100109.00;;;22.20
65569;BMP180;52211;50.154;8.682;2023-05-07T06:29:29;100108.00;;;22.30
65569;BMP180;52211;50.154;8.682;2023-05-07T06:34:38;100111.00;;;22.30
65569;BMP180;52211;50.154;8.682;2023-05-07T06:37:08;100114.00;;;22.40
65569;BMP180;52211;50.154;8.682;2023-05-07T06:39:59;100112.00;;;22.40
65569;BMP180;52211;50.154;8.682;2023-05-07T06:42:33;100118.00;;;22.40
65569;BMP180;52211;50.154;8.682;2023-05-07T06:45:19;100119.00;;;22.40
65569;BMP180;52211;50.154;8.682;2023-05-07T06:47:48;100123.00;;;22.50
65569;BMP180;52211;50.154;8.682;2023-05-07T06:50:18;100128.00;;;22.50
65569;BMP180;52211;50.154;8.682;2023-05-07T06:52:50;100132.00;;;22.50
65569;BMP180;52211;50.154;8.682;2023-05-07T06:55:16;100126.00;;;22.60
65569;BMP180;52211;50.154;8.682;2023-05-07T06:57:46;100131.00;;;22.60
65569;BMP180;52211;50.154;8.682;2023-05-07T07:00:18;100125.00;;;22.60
65569;BMP180;52211;50.154;8.682;2023-05-07T07:02:50;100125.00;;;22.60
65569;BMP180;52211;50.154;8.682;2023-05-07T07:05:21;100122.00;;;22.60
65569;BMP180;52211;50.154;8.682;2023-05-07T07:07:53;100124.00;;;22.60
65569;BMP180;52211;50.154;8.682;2023-05-07T07:10:27;100120.00;;;22.70
65569;BMP180;52211;50.154;8.682;2023-05-07T07:12:55;100131.00;;;22.70
65569;BMP180;52211;50.154;8.682;2023-05-07T07:15:22;100134.00;;;22.70
65569;BMP180;52211;50.154;8.682;2023-05-07T07:17:56;100129.00;;;22.80
65569;BMP180;52211;50.154;8.682;2023-05-07T07:20:25;100129.00;;;22.80
65569;BMP180;52211;50.154;8.682;2023-05-07T07:22:54;100130.00;;;22.90
65569;BMP180;52211;50.154;8.682;2023-05-07T07:25:26;100135.00;;;23.00
65569;BMP180;52211;50.154;8.682;2023-05-07T07:27:53;100127.00;;;23.10
65569;BMP180;52211;50.154;8.682;2023-05-07T07:30:24;100137.00;;;23.10
65569;BMP180;52211;50.154;8.682;2023-05-07T07:32:57;100140.00;;;23.20
65569;BMP180;52211;50.154;8.682;2023-05-07T07:35:35;100147.00;;;23.30
65569;BMP180;52211;50.154;8.682;2023-05-07T07:38:06;100143.00;;;23.40
65569;BMP180;52211;50.154;8.682;2023-05-07T07:40:44;100147.00;;;23.50
65569;BMP180;52211;50.154;8.682;2023-05-07T07:43:11;100133.00;;;23.60
65569;BMP180;52211;50.154;8.682;2023-05-07T07:45:40;100135.00;;;23.70
65569;BMP180;52211;50.154;8.682;2023-05-07T07:48:14;100130.00;;;23.70
65569;BMP180;52211;50.154;8.682;2023-05-07T07:50:43;100141.00;;;23.80
65569;BMP180;52211;50.154;8.682;2023-05-07T07:53:18;100139.00;;;23.90
65569;BMP180;52211;50.154;8.682;2023-05-07T07:55:47;100145.00;;;23.90
65569;BMP180;52211;50.154;8.682;2023-05-07T07:58:20;100142.00;;;24.00
65569;BMP180;52211;50.154;8.682;2023-05-07T08:00:51;100140.00;;;24.10
65569;BMP180;52211;50.154;8.682;2023-05-07T08:03:18;100145.00;;;24.10
65569;BMP180;52211;50.154;8.682;2023-05-07T08:05:53;100147.00;;;24.20
65569;BMP180;52211;50.154;8.682;2023-05-07T08:08:24;100148.00;;;24.30
65569;BMP180;52211;50.154;8.682;2023-05-07T08:10:52;100147.00;;;24.30
65569;BMP180;52211;50.154;8.682;2023-05-07T08:13:26;100140.00;;;24.40
65569;BMP180;52211;50.154;8.682;2023-05-07T08:15:56;100139.00;;;24.50
65569;BMP180;52211;50.154;8.682;2023-05-07T08:18:23;100135.00;;;24.60
65569;BMP180;52211;50.154;8.682;2023-05-07T08:20:54;100141.00;;;24.60
65569;BMP180;52211;50.154;8.682;2023-05-07T08:23:24;100140.00;;;24.70
65569;BMP180;52211;50.154;8.682;2023-05-07T08:25:54;100143.00;;;24.80
65569;BMP180;52211;50.154;8.682;2023-05-07T08:28:22;100146.00;;;24.90
65569;BMP180;52211;50.154;8.682;2023-05-07T08:30:51;100141.00;;;25.00
65569;BMP180;52211;50.154;8.682;2023-05-07T08:33:21;100146.00;;;25.00
65569;BMP180;52211;50.154;8.682;2023-05-07T08:35:48;100138.00;;;25.10
65569;BMP180;52211;50.154;8.682;2023-05-07T08:38:15;100138.00;;;25.10
65569;BMP180;52211;50.154;8.682;2023-05-07T08:40:42;100136.00;;;25.20
65569;BMP180;52211;50.154;8.682;2023-05-07T08:43:21;100141.00;;;25.20
65569;BMP180;52211;50.154;8.682;2023-05-07T08:45:53;100142.00;;;25.20
65569;BMP180;52211;50.154;8.682;2023-05-07T08:48:29;100140.00;;;25.30
65569;BMP180;52211;50.154;8.682;2023-05-07T08:51:12;100143.00;;;25.30
65569;BMP180;52211;50.154;8.682;2023-05-07T08:53:43;100139.00;;;25.30
65569;BMP180;52211;50.154;8.682;2023-05-07T08:56:15;100142.00;;;25.40
65569;BMP180;52211;50.154;8.682;2023-05-07T08:58:44;100134.00;;;25.40
65569;BMP180;52211;50.154;8.682;2023-05-07T09:01:17;100139.00;;;25.50
65569;BMP180;52211;50.154;8.682;2023-05-07T09:03:52;100138.00;;;25.50
65569;BMP180;52211;50.154;8.682;2023-05-07T09:06:25;100142.00;;;25.60
65569;BMP180;52211;50.154;8.682;2023-05-07T09:08:56;100139.00;;;25.60
65569;BMP180;52211;50.154;8.682;2023-05-07T09:11:32;100147.00;;;25.70
65569;BMP180;52211;50.154;8.682;2023-05-07T09:14:00;100143.00;;;25.70
65569;BMP180;52211;50.154;8.682;2023-05-07T09:16:34;100137.00;;;25.80
65569;BMP180;52211;50.154;8.682;2023-05-07T09:19:04;100140.00;;;25.80
65569;BMP180;52211;50.154;8.682;2023-05-07T09:21:36;100138.00;;;25.90
65569;BMP180;52211;50.154;8.682;2023-05-07T09:24:06;100143.00;;;25.90
65569;BMP180;52211;50.154;8.682;2023-05-07T09:26:37;100150.00;;;26.00
65569;BMP180;52211;50.154;8.682;2023-05-07T09:29:12;100139.00;;;26.00
65569;BMP180;52211;50.154;8.682;2023-05-07T09:31:39;100138.00;;;26.10
65569;BMP180;52211;50.154;8.682;2023-05-07T09:34:13;100134.00;;;26.20
65569;BMP180;52211;50.154;8.682;2023-05-07T09:36:48;100133.00;;;26.30
65569;BMP180;52211;50.154;8.682;2023-05-07T09:39:22;100143.00;;;26.30
65569;BMP180;52211;50.154;8.682;2023-05-07T09:41:49;100138.00;;;26.40
65569;BMP180;52211;50.154;8.682;2023-05-07T09:44:31;100141.00;;;26.50
65569;BMP180;52211;50.154;8.682;2023-05-07T09:47:07;100139.00;;;26.50
65569;BMP180;52211;50.154;8.682;2023-05-07T09:49:50;100133.00;;;26.60
65569;BMP180;52211;50.154;8.682;2023-05-07T09:52:27;100132.00;;;26.70
65569;BMP180;52211;50.154;8.682;2023-05-07T09:55:03;100128.00;;;26.70
65569;BMP180;52211;50.154;8.682;2023-05-07T09:57:40;100130.00;;;26.70
65569;BMP180;52211;50.154;8.682;2023-05-07T10:00:11;100140.00;;;26.80
65569;BMP180;52211;50.154;8.682;2023-05-07T10:02:58;100140.00;;;26.80
65569;BMP180;52211;50.154;8.682;2023-05-07T10:05:38;100140.00;;;26.90
65569;BMP180;52211;50.154;8.682;2023-05-07T10:08:09;100130.00;;;26.90
65569;BMP180;52211;50.154;8.682;2023-05-07T10:10:41;100128.00;;;27.00
65569;BMP180;52211;50.154;8.682;2023-05-07T10:13:19;100130.00;;;27.10
65569;BMP180;52211;50.154;8.682;2023-05-07T10:15:50;100135.00;;;27.10
65569;BMP180;52211;50.154;8.682;2023-05-07T10:18:22;100138.00;;;27.10
65569;BMP180;52211;50.154;8.682;2023-05-07T10:21:16;100132.00;;;27.20
65569;BMP180;52211;50.154;8.682;2023-05-07T10:26:40;100127.00;;;27.30
65569;BMP180;52211;50.154;8.682;2023-05-07T10:35:02;100125.00;;;27.50
65569;BMP180;52211;50.154;8.682;2023-05-07T10:37:34;100117.00;;;27.60
65569;BMP180;52211;50.154;8.682;2023-05-07T10:40:05;100121.00;;;27.60
65569;BMP180;52211;50.154;8.682;2023-05-07T10:42:38;100124.00;;;27.70
65569;BMP180;52211;50.154;8.682;2023-05-07T10:45:15;100121.00;;;27.80
65569;BMP180;52211;50.154;8.682;2023-05-07T10:51:22;100127.00;;;28.00
65569;BMP180;52211;50.154;8.682;2023-05-07T10:56:46;100123.00;;;28.30
65569;BMP180;52211;50.154;8.682;2023-05-07T11:02:03;100111.00;;;28.60
65569;BMP180;52211;50.154;8.682;2023-05-07T11:04:43;100106.00;;;28.70
65569;BMP180;52211;50.154;8.682;2023-05-07T11:07:29;100110.00;;;28.80
65569;BMP180;52211;50.154;8.682;2023-05-07T11:10:02;100108.00;;;29.00
65569;BMP180;52211;50.154;8.682;2023-05-07T11:15:14;100105.00;;;29.20
65569;BMP180;52211;50.154;8.682;2023-05-07T11:18:02;100107.00;;;29.30
65569;BMP180;52211;50.154;8.682;2023-05-07T11:20:46;100106.00;;;29.40
65569;BMP180;52211;50.154;8.682;2023-05-07T11:26:13;100106.00;;;29.60
65569;BMP180;52211;50.154;8.682;2023-05-07T11:28:44;100103.00;;;29.70
65569;BMP180;52211;50.154;8.682;2023-05-07T11:31:14;100111.00;;;29.80
65569;BMP180;52211;50.154;8.682;2023-05-07T11:33:44;100104.00;;;30.00
65569;BMP180;52211;50.154;8.682;2023-05-07T11:36:15;100102.00;;;30.20
65569;BMP180;52211;50.154;8.682;2023-05-07T11:38:49;100100.00;;;30.50
65569;BMP180;52211;50.154;8.682;2023-05-07T11:41:21;100104.00;;;30.70
65569;BMP180;52211;50.154;8.682;2023-05-07T11:43:59;100093.00;;;31.00
65569;BMP180;52211;50.154;8.682;2023-05-07T11:46:28;100092.00;;;31.30
65569;BMP180;52211;50.154;8.682;2023-05-07T11:49:00;100098.00;;;31.50
65569;BMP180;52211;50.154;8.682;2023-05-07T11:51:32;100087.00;;;31.80
65569;BMP180;52211;50.154;8.682;2023-05-07T11:54:04;100089.00;;;32.10
65569;BMP180;52211;50.154;8.682;2023-05-07T11:56:35;100089.00;;;32.40
65569;BMP180;52211;50.154;8.682;2023-05-07T11:59:11;100086.00;;;32.60
65569;BMP180;52211;50.154;8.682;2023-05-07T12:01:48;100081.00;;;32.80
65569;BMP180;52211;50.154;8.682;2023-05-07T12:04:25;100084.00;;;32.90
65569;BMP180;52211;50.154;8.682;2023-05-07T12:06:58;100082.00;;;33.00
65569;BMP180;52211;50.154;8.682;2023-05-07T12:09:29;100086.00;;;33.10
65569;BMP180;52211;50.154;8.682;2023-05-07T12:12:04;100079.00;;;33.20
65569;BMP180;52211;50.154;8.682;2023-05-07T12:14:46;100083.00;;;33.20
65569;BMP180;52211;50.154;8.682;2023-05-07T12:17:15;100075.00;;;33.30
65569;BMP180;52211;50.154;8.682;2023-05-07T12:19:44;100075.00;;;33.20
65569;BMP180;52211;50.154;8.682;2023-05-07T12:22:14;100068.00;;;33.20
65569;BMP180;52211;50.154;8.682;2023-05-07T12:24:56;100069.00;;;33.30
65569;BMP180;52211;50.154;8.682;2023-05-07T12:27:26;100076.00;;;33.30
65569;BMP180;52211;50.154;8.682;2023-05-07T12:29:53;100074.00;;;33.30
65569;BMP180;52211;50.154;8.682;2023-05-07T12:32:21;100068.00;;;33.30
65569;BMP180;52211;50.154;8.682;2023-05-07T12:34:52;100063.00;;;33.30
65569;BMP180;52211;50.154;8.682;2023-05-07T12:37:26;100066.00;;;33.30
65569;BMP180;52211;50.154;8.682;2023-05-07T12:40:10;100066.00;;;33.30
65569;BMP180;52211;50.154;8.682;2023-05-07T12:42:40;100074.00;;;33.40
65569;BMP180;52211;50.154;8.682;2023-05-07T12:45:15;100067.00;;;33.50
65569;BMP180;52211;50.154;8.682;2023-05-07T12:47:46;100067.00;;;33.50
65569;BMP180;52211;50.154;8.682;2023-05-07T12:50:16;100058.00;;;33.60
65569;BMP180;52211;50.154;8.682;2023-05-07T12:52:51;100057.00;;;33.60
65569;BMP180;52211;50.154;8.682;2023-05-07T12:55:20;100055.00;;;33.60
65569;BMP180;52211;50.154;8.682;2023-05-07T12:57:50;100058.00;;;33.70
65569;BMP180;52211;50.154;8.682;2023-05-07T13:00:37;100055.00;;;33.70
65569;BMP180;52211;50.154;8.682;2023-05-07T13:03:09;100047.00;;;33.70
65569;BMP180;52211;50.154;8.682;2023-05-07T13:05:41;100052.00;;;33.80
65569;BMP180;52211;50.154;8.682;2023-05-07T13:08:08;100054.00;;;33.90
65569;BMP180;52211;50.154;8.682;2023-05-07T13:10:38;100057.00;;;34.00
65569;BMP180;52211;50.154;8.682;2023-05-07T13:13:07;100057.00;;;34.00
65569;BMP180;52211;50.154;8.682;2023-05-07T13:15:34;100058.00;;;34.10
65569;BMP180;52211;50.154;8.682;2023-05-07T13:18:04;100053.00;;;34.10
65569;BMP180;52211;50.154;8.682;2023-05-07T13:20:36;100054.00;;;34.10
65569;BMP180;52211;50.154;8.682;2023-05-07T13:23:03;100055.00;;;34.00
65569;BMP180;52211;50.154;8.682;2023-05-07T13:25:33;100059.00;;;34.00
65569;BMP180;52211;50.154;8.682;2023-05-07T13:28:02;100052.00;;;33.90
65569;BMP180;52211;50.154;8.682;2023-05-07T13:30:39;100055.00;;;33.90
65569;BMP180;52211;50.154;8.682;2023-05-07T13:33:07;100054.00;;;33.80
65569;BMP180;52211;50.154;8.682;2023-05-07T13:35:34;100049.00;;;33.70
65569;BMP180;52211;50.154;8.682;2023-05-07T13:38:03;100037.00;;;33.50
65569;BMP180;52211;50.154;8.682;2023-05-07T13:40:33;100034.00;;;33.40
65569;BMP180;52211;50.154;8.682;2023-05-07T13:43:03;100032.00;;;33.20
65569;BMP180;52211;50.154;8.682;2023-05-07T13:45:30;100034.00;;;33.10
65569;BMP180;52211;50.154;8.682;2023-05-07T13:48:00;100040.00;;;33.00
65569;BMP180;52211;50.154;8.682;2023-05-07T13:50:32;100032.00;;;32.90
65569;BMP180;52211;50.154;8.682;2023-05-07T13:53:01;100041.00;;;32.80
65569;BMP180;52211;50.154;8.682;2023-05-07T13:55:29;100035.00;;;32.80
65569;BMP180;52211;50.154;8.682;2023-05-07T13:58:01;100032.00;;;32.80
65569;BMP180;52211;50.154;8.682;2023-05-07T14:00:35;100023.00;;;32.80
65569;BMP180;52211;50.154;8.682;2023-05-07T14:03:05;100022.00;;;32.80
65569;BMP180;52211;50.154;8.682;2023-05-07T14:05:39;100026.00;;;32.80
65569;BMP180;52211;50.154;8.682;2023-05-07T14:08:07;100034.00;;;32.80
65569;BMP180;52211;50.154;8.682;2023-05-07T14:10:42;100026.00;;;32.80
65569;BMP180;52211;50.154;8.682;2023-05-07T14:13:11;100026.00;;;32.80
65569;BMP180;52211;50.154;8.682;2023-05-07T14:15:38;100025.00;;;32.70
65569;BMP180;52211;50.154;8.682;2023-05-07T14:18:08;100023.00;;;32.60
65569;BMP180;52211;50.154;8.682;2023-05-07T14:20:41;100020.00;;;32.50
65569;BMP180;52211;50.154;8.682;2023-05-07T14:23:15;100022.00;;;32.40
65569;BMP180;52211;50.154;8.682;2023-05-07T14:25:46;100019.00;;;32.20
65569;BMP180;52211;50.154;8.682;2023-05-07T14:28:14;100011.00;;;32.10
65569;BMP180;52211;50.154;8.682;2023-05-07T14:30:46;100011.00;;;32.10
65569;BMP180;52211;50.154;8.682;2023-05-07T14:33:13;100013.00;;;32.00
65569;BMP180;52211;50.154;8.682;2023-05-07T14:35:42;100016.00;;;31.90
65569;BMP180;52211;50.154;8.682;2023-05-07T14:38:18;100016.00;;;31.90
65569;BMP180;52211;50.154;8.682;2023-05-07T14:40:51;100011.00;;;31.90
65569;BMP180;52211;50.154;8.682;2023-05-07T14:43:24;100014.00;;;31.90
65569;BMP180;52211;50.154;8.682;2023-05-07T14:45:53;100005.00;;;31.90